sensor_id;sensor_type;location;lat;lon;timestamp;P1;durP1;ratioP1;P2;durP2;ratioP2
4450;SDS011;2238;50.180;9.230;2022-12-24T00:02:08;8.43;;;2.70;;
4450;SDS011;2238;50.180;9.230;2022-12-24T00:05:09;5.77;;;2.57;;
4450;SDS011;2238;50.180;9.230;2022-12-24T00:08:09;6.93;;;2.90;;
4450;SDS011;2238;50.180;9.230;2022-12-24T00:11:10;6.60;;;2.83;;
4450;SDS011;2238;50.180;9.230;2022-12-24T00:14:11;9.90;;;3.17;;
4450;SDS011;2238;50.180;9.230;2022-12-24T00:17:12;6.43;;;2.80;;
4450;SDS011;2238;50.180;9.230;2022-12-24T00:20:13;7.50;;;2.93;;
4450;SDS011;2238;50.180;9.230;2022-12-24T00:23:13;9.13;;;3.00;;
4450;SDS011;2238;50.180;9.230;2022-12-24T00:26:15;8.80;;;2.63;;
4450;SDS011;2238;50.180;9.230;2022-12-24T00:29:15;8.73;;;3.03;;
4450;SDS011;2238;50.180;9.230;2022-12-24T00:32:16;9.43;;;3.00;;
4450;SDS011;2238;50.180;9.230;2022-12-24T00:35:16;8.37;;;3.10;;
4450;SDS011;2238;50.180;9.230;2022-12-24T00:38:17;7.43;;;2.80;;
4450;SDS011;2238;50.180;9.230;2022-12-24T00:41:18;5.73;;;2.73;;
4450;SDS011;2238;50.180;9.230;2022-12-24T00:44:24;11.00;;;3.03;;
4450;SDS011;2238;50.180;9.230;2022-12-24T00:47:25;8.87;;;2.77;;
4450;SDS011;2238;50.180;9.230;2022-12-24T00:50:25;4.97;;;2.83;;
4450;SDS011;2238;50.180;9.230;2022-12-24T00:53:26;12.23;;;3.17;;
4450;SDS011;2238;50.180;9.230;2022-12-24T00:56:29;7.80;;;2.80;;
4450;SDS011;2238;50.180;9.230;2022-12-24T00:59:31;7.13;;;2.87;;
4450;SDS011;2238;50.180;9.230;2022-12-24T01:02:31;8.50;;;3.33;;
4450;SDS011;2238;50.180;9.230;2022-12-24T01:05:32;5.97;;;3.00;;
4450;SDS011;2238;50.180;9.230;2022-12-24T01:08:33;11.90;;;2.90;;
4450;SDS011;2238;50.180;9.230;2022-12-24T01:11:35;6.63;;;2.73;;
4450;SDS011;2238;50.180;9.230;2022-12-24T01:14:36;12.27;;;2.80;;
4450;SDS011;2238;50.180;9.230;2022-12-24T01:17:37;5.03;;;2.83;;
4450;SDS011;2238;50.180;9.230;2022-12-24T01:20:39;6.67;;;2.70;;
4450;SDS011;2238;50.180;9.230;2022-12-24T01:23:40;9.17;;;3.60;;
4450;SDS011;2238;50.180;9.230;2022-12-24T01:26:41;18.20;;;4.13;;
4450;SDS011;2238;50.180;9.230;2022-12-24T01:29:43;6.33;;;3.10;;
4450;SDS011;2238;50.180;9.230;2022-12-24T01:32:43;7.33;;;2.90;;
4450;SDS011;2238;50.180;9.230;2022-12-24T01:35:45;6.30;;;2.80;;
4450;SDS011;2238;50.180;9.230;2022-12-24T01:38:46;3.03;;;2.33;;
4450;SDS011;2238;50.180;9.230;2022-12-24T01:41:46;4.70;;;2.90;;
4450;SDS011;2238;50.180;9.230;2022-12-24T01:45:30;8.83;;;3.40;;
4450;SDS011;2238;50.180;9.230;2022-12-24T01:48:47;7.03;;;3.97;;
4450;SDS011;2238;50.180;9.230;2022-12-24T01:51:53;7.40;;;2.97;;
4450;SDS011;2238;50.180;9.230;2022-12-24T01:55:01;6.57;;;2.70;;
4450;SDS011;2238;50.180;9.230;2022-12-24T01:58:10;5.07;;;3.20;;
4450;SDS011;2238;50.180;9.230;2022-12-24T02:01:14;5.53;;;2.73;;
4450;SDS011;2238;50.180;9.230;2022-12-24T02:04:16;9.50;;;2.60;;
4450;SDS011;2238;50.180;9.230;2022-12-24T02:07:37;7.30;;;2.63;;
4450;SDS011;2238;50.180;9.230;2022-12-24T02:10:38;11.90;;;2.87;;
4450;SDS011;2238;50.180;9.230;2022-12-24T02:13:38;6.60;;;2.70;;
4450;SDS011;2238;50.180;9.230;2022-12-24T02:16:59;5.00;;;3.00;;
4450;SDS011;2238;50.180;9.230;2022-12-24T02:23:47;9.40;;;2.90;;
4450;SDS011;2238;50.180;9.230;2022-12-24T02:30:43;6.20;;;2.70;;
4450;SDS011;2238;50.180;9.230;2022-12-24T02:33:54;7.40;;;2.87;;
4450;SDS011;2238;50.180;9.230;2022-12-24T02:37:18;11.03;;;2.97;;
4450;SDS011;2238;50.180;9.230;2022-12-24T02:40:25;6.63;;;2.73;;
4450;SDS011;2238;50.180;9.230;2022-12-24T02:43:34;6.03;;;2.67;;
4450;SDS011;2238;50.180;9.230;2022-12-24T02:46:38;7.00;;;2.83;;
4450;SDS011;2238;50.180;9.230;2022-12-24T02:49:41;7.53;;;3.43;;
4450;SDS011;2238;50.180;9.230;2022-12-24T02:52:44;8.57;;;2.90;;
4450;SDS011;2238;50.180;9.230;2022-12-24T02:55:50;11.03;;;4.23;;
4450;SDS011;2238;50.180;9.230;2022-12-24T02:59:07;9.03;;;4.03;;
4450;SDS011;2238;50.180;9.230;2022-12-24T03:02:35;9.20;;;4.30;;
4450;SDS011;2238;50.180;9.230;2022-12-24T03:05:47;10.40;;;3.10;;
4450;SDS011;2238;50.180;9.230;2022-12-24T03:08:59;10.07;;;2.77;;
4450;SDS011;2238;50.180;9.230;2022-12-24T03:12:08;8.97;;;3.03;;
4450;SDS011;2238;50.180;9.230;2022-12-24T03:15:14;14.03;;;2.60;;
4450;SDS011;2238;50.180;9.230;2022-12-24T03:18:17;13.90;;;3.60;;
4450;SDS011;2238;50.180;9.230;2022-12-24T03:21:23;11.40;;;3.77;;
4450;SDS011;2238;50.180;9.230;2022-12-24T03:24:28;5.93;;;3.97;;
4450;SDS011;2238;50.180;9.230;2022-12-24T03:27:29;7.40;;;3.80;;
4450;SDS011;2238;50.180;9.230;2022-12-24T03:30:32;9.87;;;3.20;;
4450;SDS011;2238;50.180;9.230;2022-12-24T03:33:33;7.40;;;3.33;;
4450;SDS011;2238;50.180;9.230;2022-12-24T03:36:34;8.10;;;3.57;;
4450;SDS011;2238;50.180;9.230;2022-12-24T03:39:34;16.70;;;3.63;;
4450;SDS011;2238;50.180;9.230;2022-12-24T03:42:35;8.23;;;2.80;;
4450;SDS011;2238;50.180;9.230;2022-12-24T03:45:36;9.20;;;3.37;;
4450;SDS011;2238;50.180;9.230;2022-12-24T03:48:36;13.57;;;4.23;;
4450;SDS011;2238;50.180;9.230;2022-12-24T03:51:37;8.47;;;3.53;;
4450;SDS011;2238;50.180;9.230;2022-12-24T03:54:37;9.50;;;2.93;;
4450;SDS011;2238;50.180;9.230;2022-12-24T03:57:38;7.53;;;3.03;;
4450;SDS011;2238;50.180;9.230;2022-12-24T04:00:39;7.53;;;3.77;;
4450;SDS011;2238;50.180;9.230;2022-12-24T04:03:39;15.47;;;3.20;;
4450;SDS011;2238;50.180;9.230;2022-12-24T04:06:40;9.83;;;2.90;;
4450;SDS011;2238;50.180;9.230;2022-12-24T04:09:41;18.77;;;3.30;;
4450;SDS011;2238;50.180;9.230;2022-12-24T04:12:41;7.50;;;2.67;;
4450;SDS011;2238;50.180;9.230;2022-12-24T04:15:43;9.07;;;3.00;;
4450;SDS011;2238;50.180;9.230;2022-12-24T04:18:43;9.07;;;3.70;;
4450;SDS011;2238;50.180;9.230;2022-12-24T04:21:44;7.47;;;3.97;;
4450;SDS011;2238;50.180;9.230;2022-12-24T04:24:44;10.93;;;3.40;;
4450;SDS011;2238;50.180;9.230;2022-12-24T04:27:46;6.13;;;2.83;;
4450;SDS011;2238;50.180;9.230;2022-12-24T04:30:46;9.47;;;2.87;;
4450;SDS011;2238;50.180;9.230;2022-12-24T04:33:47;5.90;;;2.43;;
4450;SDS011;2238;50.180;9.230;2022-12-24T04:36:50;7.77;;;2.80;;
4450;SDS011;2238;50.180;9.230;2022-12-24T04:39:52;9.10;;;3.30;;
4450;SDS011;2238;50.180;9.230;2022-12-24T04:42:52;9.20;;;3.10;;
4450;SDS011;2238;50.180;9.230;2022-12-24T04:45:53;9.83;;;3.10;;
4450;SDS011;2238;50.180;9.230;2022-12-24T04:48:55;5.20;;;2.90;;
4450;SDS011;2238;50.180;9.230;2022-12-24T04:51:57;11.20;;;4.30;;
4450;SDS011;2238;50.180;9.230;2022-12-24T04:54:58;6.43;;;2.80;;
4450;SDS011;2238;50.180;9.230;2022-12-24T04:57:59;8.43;;;3.57;;
4450;SDS011;2238;50.180;9.230;2022-12-24T05:01:06;7.50;;;3.53;;
4450;SDS011;2238;50.180;9.230;2022-12-24T05:04:10;8.63;;;2.90;;
4450;SDS011;2238;50.180;9.230;2022-12-24T05:07:10;6.93;;;2.97;;
4450;SDS011;2238;50.180;9.230;2022-12-24T05:10:12;6.27;;;3.70;;
4450;SDS011;2238;50.180;9.230;2022-12-24T05:13:13;6.63;;;3.40;;
4450;SDS011;2238;50.180;9.230;2022-12-24T05:16:14;11.13;;;3.00;;
4450;SDS011;2238;50.180;9.230;2022-12-24T05:19:17;9.87;;;3.17;;
4450;SDS011;2238;50.180;9.230;2022-12-24T05:22:17;8.80;;;2.97;;
4450;SDS011;2238;50.180;9.230;2022-12-24T05:25:37;8.13;;;2.83;;
4450;SDS011;2238;50.180;9.230;2022-12-24T05:28:58;13.00;;;3.73;;
4450;SDS011;2238;50.180;9.230;2022-12-24T05:32:00;10.50;;;4.20;;
4450;SDS011;2238;50.180;9.230;2022-12-24T05:35:00;10.10;;;4.33;;
4450;SDS011;2238;50.180;9.230;2022-12-24T05:38:01;10.17;;;3.57;;
4450;SDS011;2238;50.180;9.230;2022-12-24T05:41:01;6.90;;;3.03;;
4450;SDS011;2238;50.180;9.230;2022-12-24T05:44:02;9.10;;;2.77;;
4450;SDS011;2238;50.180;9.230;2022-12-24T05:47:04;16.57;;;3.77;;
4450;SDS011;2238;50.180;9.230;2022-12-24T05:50:05;13.40;;;3.27;;
4450;SDS011;2238;50.180;9.230;2022-12-24T05:53:06;6.60;;;2.63;;
4450;SDS011;2238;50.180;9.230;2022-12-24T05:56:08;12.20;;;3.50;;
4450;SDS011;2238;50.180;9.230;2022-12-24T05:59:12;7.20;;;2.97;;
4450;SDS011;2238;50.180;9.230;2022-12-24T06:02:13;11.53;;;3.97;;
4450;SDS011;2238;50.180;9.230;2022-12-24T06:05:14;9.73;;;4.20;;
4450;SDS011;2238;50.180;9.230;2022-12-24T06:08:14;8.93;;;2.80;;
4450;SDS011;2238;50.180;9.230;2022-12-24T06:11:15;11.40;;;3.57;;
4450;SDS011;2238;50.180;9.230;2022-12-24T06:14:18;10.83;;;2.70;;
4450;SDS011;2238;50.180;9.230;2022-12-24T06:17:18;9.93;;;3.37;;
4450;SDS011;2238;50.180;9.230;2022-12-24T06:20:19;10.50;;;3.73;;
4450;SDS011;2238;50.180;9.230;2022-12-24T06:23:20;5.87;;;3.27;;
4450;SDS011;2238;50.180;9.230;2022-12-24T06:26:21;15.50;;;3.53;;
4450;SDS011;2238;50.180;9.230;2022-12-24T06:29:22;12.93;;;4.70;;
4450;SDS011;2238;50.180;9.230;2022-12-24T06:32:23;10.27;;;2.87;;
4450;SDS011;2238;50.180;9.230;2022-12-24T06:35:23;9.33;;;3.60;;
4450;SDS011;2238;50.180;9.230;2022-12-24T06:38:24;11.00;;;3.10;;
4450;SDS011;2238;50.180;9.230;2022-12-24T06:41:25;7.40;;;3.50;;
4450;SDS011;2238;50.180;9.230;2022-12-24T06:44:27;11.73;;;3.40;;
4450;SDS011;2238;50.180;9.230;2022-12-24T06:47:27;10.80;;;3.20;;
4450;SDS011;2238;50.180;9.230;2022-12-24T06:50:28;8.97;;;3.90;;
4450;SDS011;2238;50.180;9.230;2022-12-24T06:53:29;11.93;;;3.93;;
4450;SDS011;2238;50.180;9.230;2022-12-24T06:56:30;11.73;;;4.20;;
4450;SDS011;2238;50.180;9.230;2022-12-24T06:59:31;10.83;;;4.40;;
4450;SDS011;2238;50.180;9.230;2022-12-24T07:02:31;10.03;;;4.27;;
4450;SDS011;2238;50.180;9.230;2022-12-24T07:05:32;10.00;;;3.77;;
4450;SDS011;2238;50.180;9.230;2022-12-24T07:08:32;6.50;;;4.20;;
4450;SDS011;2238;50.180;9.230;2022-12-24T07:11:35;11.80;;;3.83;;
4450;SDS011;2238;50.180;9.230;2022-12-24T07:14:35;9.47;;;3.77;;
4450;SDS011;2238;50.180;9.230;2022-12-24T07:17:37;15.30;;;4.80;;
4450;SDS011;2238;50.180;9.230;2022-12-24T07:20:38;12.53;;;4.10;;
4450;SDS011;2238;50.180;9.230;2022-12-24T07:23:38;18.13;;;4.93;;
4450;SDS011;2238;50.180;9.230;2022-12-24T07:26:40;12.03;;;4.17;;
4450;SDS011;2238;50.180;9.230;2022-12-24T07:29:41;12.07;;;4.60;;
4450;SDS011;2238;50.180;9.230;2022-12-24T07:32:42;15.10;;;4.70;;
4450;SDS011;2238;50.180;9.230;2022-12-24T07:35:43;12.87;;;4.40;;
4450;SDS011;2238;50.180;9.230;2022-12-24T07:38:43;17.70;;;4.90;;
4450;SDS011;2238;50.180;9.230;2022-12-24T07:41:44;17.23;;;5.20;;
4450;SDS011;2238;50.180;9.230;2022-12-24T07:44:44;11.03;;;5.33;;
4450;SDS011;2238;50.180;9.230;2022-12-24T07:47:45;15.93;;;5.37;;
4450;SDS011;2238;50.180;9.230;2022-12-24T07:50:47;16.03;;;5.50;;
4450;SDS011;2238;50.180;9.230;2022-12-24T07:53:50;13.77;;;5.17;;
4450;SDS011;2238;50.180;9.230;2022-12-24T07:56:56;8.60;;;5.10;;
4450;SDS011;2238;50.180;9.230;2022-12-24T07:59:57;17.27;;;6.37;;
4450;SDS011;2238;50.180;9.230;2022-12-24T08:02:58;21.03;;;7.47;;
4450;SDS011;2238;50.180;9.230;2022-12-24T08:05:59;20.10;;;7.27;;
4450;SDS011;2238;50.180;9.230;2022-12-24T08:08:59;22.07;;;9.53;;
4450;SDS011;2238;50.180;9.230;2022-12-24T08:12:01;27.50;;;13.47;;
4450;SDS011;2238;50.180;9.230;2022-12-24T08:15:03;21.30;;;10.40;;
4450;SDS011;2238;50.180;9.230;2022-12-24T08:18:04;17.70;;;8.93;;
4450;SDS011;2238;50.180;9.230;2022-12-24T08:21:06;12.17;;;7.70;;
4450;SDS011;2238;50.180;9.230;2022-12-24T08:24:07;20.53;;;9.23;;
4450;SDS011;2238;50.180;9.230;2022-12-24T08:27:08;16.63;;;6.50;;
4450;SDS011;2238;50.180;9.230;2022-12-24T08:30:09;9.67;;;5.70;;
4450;SDS011;2238;50.180;9.230;2022-12-24T08:33:10;18.60;;;5.90;;
4450;SDS011;2238;50.180;9.230;2022-12-24T08:36:11;12.20;;;4.83;;
4450;SDS011;2238;50.180;9.230;2022-12-24T08:39:12;11.50;;;6.57;;
4450;SDS011;2238;50.180;9.230;2022-12-24T08:42:13;15.17;;;5.20;;
4450;SDS011;2238;50.180;9.230;2022-12-24T08:45:14;17.83;;;6.00;;
4450;SDS011;2238;50.180;9.230;2022-12-24T08:48:15;19.83;;;5.97;;
4450;SDS011;2238;50.180;9.230;2022-12-24T08:51:16;13.93;;;4.67;;
4450;SDS011;2238;50.180;9.230;2022-12-24T08:54:18;13.77;;;5.53;;
4450;SDS011;2238;50.180;9.230;2022-12-24T08:57:18;18.17;;;6.77;;
4450;SDS011;2238;50.180;9.230;2022-12-24T09:00:20;15.00;;;4.80;;
4450;SDS011;2238;50.180;9.230;2022-12-24T09:03:21;14.60;;;5.90;;
4450;SDS011;2238;50.180;9.230;2022-12-24T09:06:22;12.33;;;5.47;;
4450;SDS011;2238;50.180;9.230;2022-12-24T09:09:23;9.37;;;5.00;;
4450;SDS011;2238;50.180;9.230;2022-12-24T09:12:23;16.57;;;5.57;;
4450;SDS011;2238;50.180;9.230;2022-12-24T09:15:24;14.20;;;5.43;;
4450;SDS011;2238;50.180;9.230;2022-12-24T09:18:25;24.43;;;7.03;;
4450;SDS011;2238;50.180;9.230;2022-12-24T09:21:25;13.43;;;5.43;;
4450;SDS011;2238;50.180;9.230;2022-12-24T09:24:26;22.60;;;6.33;;
4450;SDS011;2238;50.180;9.230;2022-12-24T09:27:26;13.53;;;5.50;;
4450;SDS011;2238;50.180;9.230;2022-12-24T09:30:29;21.67;;;7.00;;
4450;SDS011;2238;50.180;9.230;2022-12-24T09:33:31;15.90;;;6.83;;
4450;SDS011;2238;50.180;9.230;2022-12-24T09:36:34;16.13;;;5.97;;
4450;SDS011;2238;50.180;9.230;2022-12-24T09:39:35;12.27;;;6.10;;
4450;SDS011;2238;50.180;9.230;2022-12-24T09:42:43;19.03;;;7.20;;
4450;SDS011;2238;50.180;9.230;2022-12-24T09:49:25;21.43;;;6.80;;
4450;SDS011;2238;50.180;9.230;2022-12-24T09:52:38;17.30;;;5.63;;
4450;SDS011;2238;50.180;9.230;2022-12-24T09:55:45;17.03;;;5.73;;
4450;SDS011;2238;50.180;9.230;2022-12-24T09:59:02;11.50;;;5.97;;
4450;SDS011;2238;50.180;9.230;2022-12-24T10:02:07;15.43;;;5.97;;
4450;SDS011;2238;50.180;9.230;2022-12-24T10:05:22;21.70;;;7.30;;
4450;SDS011;2238;50.180;9.230;2022-12-24T10:15:29;15.90;;;7.33;;
4450;SDS011;2238;50.180;9.230;2022-12-24T10:19:00;14.10;;;6.30;;
4450;SDS011;2238;50.180;9.230;2022-12-24T10:25:29;12.00;;;5.50;;
4450;SDS011;2238;50.180;9.230;2022-12-24T10:28:41;26.40;;;7.03;;
4450;SDS011;2238;50.180;9.230;2022-12-24T10:54:19;14.13;;;6.50;;
4450;SDS011;2238;50.180;9.230;2022-12-24T10:57:24;20.10;;;6.17;;
4450;SDS011;2238;50.180;9.230;2022-12-24T11:00:26;12.50;;;5.00;;
4450;SDS011;2238;50.180;9.230;2022-12-24T11:03:29;21.23;;;10.03;;
4450;SDS011;2238;50.180;9.230;2022-12-24T11:06:33;20.07;;;7.10;;
4450;SDS011;2238;50.180;9.230;2022-12-24T11:12:57;21.40;;;8.60;;
4450;SDS011;2238;50.180;9.230;2022-12-24T11:15:59;16.40;;;6.37;;
4450;SDS011;2238;50.180;9.230;2022-12-24T11:19:05;17.40;;;4.90;;
4450;SDS011;2238;50.180;9.230;2022-12-24T11:22:22;20.97;;;5.60;;
4450;SDS011;2238;50.180;9.230;2022-12-24T11:25:29;17.50;;;5.80;;
4450;SDS011;2238;50.180;9.230;2022-12-24T11:28:40;13.40;;;5.50;;
4450;SDS011;2238;50.180;9.230;2022-12-24T11:31:44;16.80;;;6.30;;
4450;SDS011;2238;50.180;9.230;2022-12-24T11:34:45;20.00;;;6.20;;
4450;SDS011;2238;50.180;9.230;2022-12-24T11:41:01;18.03;;;6.40;;
4450;SDS011;2238;50.180;9.230;2022-12-24T11:44:04;18.77;;;5.73;;
4450;SDS011;2238;50.180;9.230;2022-12-24T11:47:09;16.63;;;5.60;;
4450;SDS011;2238;50.180;9.230;2022-12-24T11:50:28;15.10;;;5.53;;
4450;SDS011;2238;50.180;9.230;2022-12-24T11:53:35;22.27;;;6.77;;
4450;SDS011;2238;50.180;9.230;2022-12-24T11:56:54;15.67;;;6.97;;
4450;SDS011;2238;50.180;9.230;2022-12-24T11:59:57;12.67;;;6.27;;
4450;SDS011;2238;50.180;9.230;2022-12-24T12:02:58;19.23;;;6.00;;
4450;SDS011;2238;50.180;9.230;2022-12-24T12:06:02;16.93;;;6.40;;
4450;SDS011;2238;50.180;9.230;2022-12-24T12:09:13;12.97;;;5.00;;
4450;SDS011;2238;50.180;9.230;2022-12-24T12:12:28;16.00;;;5.00;;
4450;SDS011;2238;50.180;9.230;2022-12-24T12:15:32;18.17;;;5.20;;
4450;SDS011;2238;50.180;9.230;2022-12-24T12:18:40;17.00;;;6.43;;
4450;SDS011;2238;50.180;9.230;2022-12-24T12:21:46;18.20;;;6.20;;
4450;SDS011;2238;50.180;9.230;2022-12-24T12:24:49;15.40;;;6.03;;
4450;SDS011;2238;50.180;9.230;2022-12-24T12:27:52;10.10;;;4.30;;
4450;SDS011;2238;50.180;9.230;2022-12-24T12:31:00;9.30;;;4.00;;
4450;SDS011;2238;50.180;9.230;2022-12-24T12:34:09;16.50;;;4.63;;
4450;SDS011;2238;50.180;9.230;2022-12-24T12:37:23;14.63;;;5.10;;
4450;SDS011;2238;50.180;9.230;2022-12-24T12:44:12;12.50;;;4.60;;
4450;SDS011;2238;50.180;9.230;2022-12-24T12:51:09;17.00;;;5.97;;
4450;SDS011;2238;50.180;9.230;2022-12-24T12:58:02;14.77;;;5.50;;
4450;SDS011;2238;50.180;9.230;2022-12-24T13:01:25;19.93;;;6.40;;
4450;SDS011;2238;50.180;9.230;2022-12-24T13:08:07;15.93;;;5.03;;
4450;SDS011;2238;50.180;9.230;2022-12-24T13:11:26;13.73;;;5.20;;
4450;SDS011;2238;50.180;9.230;2022-12-24T13:21:27;16.53;;;5.33;;
4450;SDS011;2238;50.180;9.230;2022-12-24T13:24:30;16.37;;;5.17;;
4450;SDS011;2238;50.180;9.230;2022-12-24T13:27:31;11.60;;;5.50;;
4450;SDS011;2238;50.180;9.230;2022-12-24T13:30:36;22.60;;;7.03;;
4450;SDS011;2238;50.180;9.230;2022-12-24T13:36:58;10.70;;;4.47;;
4450;SDS011;2238;50.180;9.230;2022-12-24T13:40:06;9.83;;;4.73;;
4450;SDS011;2238;50.180;9.230;2022-12-24T13:43:15;22.07;;;5.97;;
4450;SDS011;2238;50.180;9.230;2022-12-24T13:46:44;14.03;;;5.40;;
4450;SDS011;2238;50.180;9.230;2022-12-24T13:49:48;16.33;;;5.30;;
4450;SDS011;2238;50.180;9.230;2022-12-24T13:52:51;21.23;;;6.60;;
4450;SDS011;2238;50.180;9.230;2022-12-24T13:56:03;17.87;;;6.33;;
4450;SDS011;2238;50.180;9.230;2022-12-24T13:59:11;13.70;;;5.63;;
4450;SDS011;2238;50.180;9.230;2022-12-24T14:02:25;19.63;;;6.57;;
4450;SDS011;2238;50.180;9.230;2022-12-24T14:05:38;19.20;;;5.80;;
4450;SDS011;2238;50.180;9.230;2022-12-24T14:08:44;16.57;;;6.50;;
4450;SDS011;2238;50.180;9.230;2022-12-24T14:18:41;16.77;;;7.93;;
4450;SDS011;2238;50.180;9.230;2022-12-24T14:21:55;15.17;;;6.30;;
4450;SDS011;2238;50.180;9.230;2022-12-24T14:25:00;21.20;;;9.43;;
4450;SDS011;2238;50.180;9.230;2022-12-24T14:28:04;21.27;;;6.40;;
4450;SDS011;2238;50.180;9.230;2022-12-24T14:31:13;15.50;;;6.80;;
4450;SDS011;2238;50.180;9.230;2022-12-24T14:34:16;14.47;;;5.53;;
4450;SDS011;2238;50.180;9.230;2022-12-24T14:37:16;22.97;;;7.90;;
4450;SDS011;2238;50.180;9.230;2022-12-24T14:40:20;11.23;;;4.93;;
4450;SDS011;2238;50.180;9.230;2022-12-24T14:43:38;13.20;;;6.37;;
4450;SDS011;2238;50.180;9.230;2022-12-24T14:46:48;14.87;;;5.33;;
4450;SDS011;2238;50.180;9.230;2022-12-24T14:50:01;13.37;;;7.97;;
4450;SDS011;2238;50.180;9.230;2022-12-24T14:53:27;15.47;;;7.40;;
4450;SDS011;2238;50.180;9.230;2022-12-24T14:56:38;15.60;;;6.80;;
4450;SDS011;2238;50.180;9.230;2022-12-24T14:59:46;15.87;;;7.07;;
4450;SDS011;2238;50.180;9.230;2022-12-24T15:02:54;16.80;;;6.40;;
4450;SDS011;2238;50.180;9.230;2022-12-24T15:05:59;15.10;;;6.57;;
4450;SDS011;2238;50.180;9.230;2022-12-24T15:09:03;14.07;;;8.17;;
4450;SDS011;2238;50.180;9.230;2022-12-24T15:12:05;12.43;;;7.40;;
4450;SDS011;2238;50.180;9.230;2022-12-24T15:15:14;19.67;;;6.30;;
4450;SDS011;2238;50.180;9.230;2022-12-24T15:18:17;12.10;;;6.23;;
4450;SDS011;2238;50.180;9.230;2022-12-24T15:21:28;15.97;;;7.30;;
4450;SDS011;2238;50.180;9.230;2022-12-24T15:24:32;13.87;;;7.60;;
4450;SDS011;2238;50.180;9.230;2022-12-24T15:27:37;12.93;;;6.53;;
4450;SDS011;2238;50.180;9.230;2022-12-24T15:30:38;27.10;;;16.13;;
4450;SDS011;2238;50.180;9.230;2022-12-24T15:33:38;16.63;;;8.20;;
4450;SDS011;2238;50.180;9.230;2022-12-24T15:36:39;18.83;;;13.43;;
4450;SDS011;2238;50.180;9.230;2022-12-24T15:39:40;22.87;;;12.57;;
4450;SDS011;2238;50.180;9.230;2022-12-24T15:42:41;12.13;;;8.57;;
4450;SDS011;2238;50.180;9.230;2022-12-24T15:45:42;18.27;;;8.37;;
4450;SDS011;2238;50.180;9.230;2022-12-24T15:48:44;25.00;;;10.27;;
4450;SDS011;2238;50.180;9.230;2022-12-24T15:51:47;19.30;;;6.80;;
4450;SDS011;2238;50.180;9.230;2022-12-24T15:54:47;16.10;;;8.77;;
4450;SDS011;2238;50.180;9.230;2022-12-24T15:57:49;13.80;;;6.97;;
4450;SDS011;2238;50.180;9.230;2022-12-24T16:01:01;22.40;;;11.80;;
4450;SDS011;2238;50.180;9.230;2022-12-24T16:04:14;17.83;;;7.10;;
4450;SDS011;2238;50.180;9.230;2022-12-24T16:07:26;17.33;;;8.57;;
4450;SDS011;2238;50.180;9.230;2022-12-24T16:10:50;18.43;;;7.13;;
4450;SDS011;2238;50.180;9.230;2022-12-24T16:17:20;13.07;;;5.83;;
4450;SDS011;2238;50.180;9.230;2022-12-24T16:20:22;16.63;;;6.70;;
4450;SDS011;2238;50.180;9.230;2022-12-24T16:23:25;13.90;;;6.97;;
4450;SDS011;2238;50.180;9.230;2022-12-24T16:26:29;23.00;;;7.57;;
4450;SDS011;2238;50.180;9.230;2022-12-24T16:29:29;16.93;;;7.17;;
4450;SDS011;2238;50.180;9.230;2022-12-24T16:32:31;16.07;;;8.17;;
4450;SDS011;2238;50.180;9.230;2022-12-24T16:35:33;21.03;;;9.83;;
4450;SDS011;2238;50.180;9.230;2022-12-24T16:38:35;22.33;;;10.67;;
4450;SDS011;2238;50.180;9.230;2022-12-24T16:41:56;17.63;;;10.47;;
4450;SDS011;2238;50.180;9.230;2022-12-24T16:45:17;23.87;;;12.20;;
4450;SDS011;2238;50.180;9.230;2022-12-24T16:48:19;19.90;;;10.13;;
4450;SDS011;2238;50.180;9.230;2022-12-24T16:51:22;22.70;;;12.90;;
4450;SDS011;2238;50.180;9.230;2022-12-24T16:54:23;25.33;;;11.13;;
4450;SDS011;2238;50.180;9.230;2022-12-24T16:57:23;21.87;;;10.53;;
4450;SDS011;2238;50.180;9.230;2022-12-24T17:00:24;19.97;;;12.03;;
4450;SDS011;2238;50.180;9.230;2022-12-24T17:03:25;26.67;;;17.87;;
4450;SDS011;2238;50.180;9.230;2022-12-24T17:06:25;27.43;;;16.67;;
4450;SDS011;2238;50.180;9.230;2022-12-24T17:09:26;20.63;;;14.10;;
4450;SDS011;2238;50.180;9.230;2022-12-24T17:12:26;21.37;;;13.60;;
4450;SDS011;2238;50.180;9.230;2022-12-24T17:15:27;20.80;;;12.13;;
4450;SDS011;2238;50.180;9.230;2022-12-24T17:18:28;68.63;;;34.23;;
4450;SDS011;2238;50.180;9.230;2022-12-24T17:21:28;30.57;;;15.90;;
4450;SDS011;2238;50.180;9.230;2022-12-24T17:24:29;23.73;;;12.00;;
4450;SDS011;2238;50.180;9.230;2022-12-24T17:27:30;18.63;;;11.10;;
4450;SDS011;2238;50.180;9.230;2022-12-24T17:30:31;15.90;;;10.10;;
4450;SDS011;2238;50.180;9.230;2022-12-24T17:33:32;15.83;;;9.87;;
4450;SDS011;2238;50.180;9.230;2022-12-24T17:36:33;14.77;;;7.73;;
4450;SDS011;2238;50.180;9.230;2022-12-24T17:39:33;16.10;;;7.23;;
4450;SDS011;2238;50.180;9.230;2022-12-24T17:42:34;11.03;;;7.47;;
4450;SDS011;2238;50.180;9.230;2022-12-24T17:45:38;17.30;;;6.97;;
4450;SDS011;2238;50.180;9.230;2022-12-24T17:48:40;17.70;;;7.23;;
4450;SDS011;2238;50.180;9.230;2022-12-24T17:51:41;13.53;;;6.07;;
4450;SDS011;2238;50.180;9.230;2022-12-24T17:54:42;12.93;;;8.70;;
4450;SDS011;2238;50.180;9.230;2022-12-24T17:57:43;12.77;;;6.50;;
4450;SDS011;2238;50.180;9.230;2022-12-24T18:00:44;16.60;;;8.60;;
4450;SDS011;2238;50.180;9.230;2022-12-24T18:03:44;17.67;;;10.43;;
4450;SDS011;2238;50.180;9.230;2022-12-24T18:06:46;8.83;;;7.30;;
4450;SDS011;2238;50.180;9.230;2022-12-24T18:09:46;13.20;;;5.90;;
4450;SDS011;2238;50.180;9.230;2022-12-24T18:12:47;14.13;;;7.77;;
4450;SDS011;2238;50.180;9.230;2022-12-24T18:15:48;16.07;;;8.27;;
4450;SDS011;2238;50.180;9.230;2022-12-24T18:18:49;13.97;;;7.50;;
4450;SDS011;2238;50.180;9.230;2022-12-24T18:21:50;15.20;;;7.80;;
4450;SDS011;2238;50.180;9.230;2022-12-24T18:24:52;11.63;;;7.37;;
4450;SDS011;2238;50.180;9.230;2022-12-24T18:27:52;8.57;;;6.70;;
4450;SDS011;2238;50.180;9.230;2022-12-24T18:30:59;13.60;;;9.33;;
4450;SDS011;2238;50.180;9.230;2022-12-24T18:34:03;16.37;;;7.30;;
4450;SDS011;2238;50.180;9.230;2022-12-24T18:37:05;12.60;;;7.80;;
4450;SDS011;2238;50.180;9.230;2022-12-24T18:40:06;16.83;;;9.20;;
4450;SDS011;2238;50.180;9.230;2022-12-24T18:43:08;10.40;;;7.20;;
4450;SDS011;2238;50.180;9.230;2022-12-24T18:46:09;13.10;;;9.13;;
4450;SDS011;2238;50.180;9.230;2022-12-24T18:49:12;20.37;;;12.20;;
4450;SDS011;2238;50.180;9.230;2022-12-24T18:52:12;16.13;;;11.63;;
4450;SDS011;2238;50.180;9.230;2022-12-24T18:55:15;16.30;;;11.77;;
4450;SDS011;2238;50.180;9.230;2022-12-24T18:58:16;15.87;;;11.40;;
4450;SDS011;2238;50.180;9.230;2022-12-24T19:01:21;16.87;;;11.00;;
4450;SDS011;2238;50.180;9.230;2022-12-24T19:04:23;18.20;;;11.50;;
4450;SDS011;2238;50.180;9.230;2022-12-24T19:07:24;14.77;;;9.53;;
4450;SDS011;2238;50.180;9.230;2022-12-24T19:10:25;20.90;;;11.23;;
4450;SDS011;2238;50.180;9.230;2022-12-24T19:13:25;33.33;;;18.07;;
4450;SDS011;2238;50.180;9.230;2022-12-24T19:16:27;12.77;;;9.33;;
4450;SDS011;2238;50.180;9.230;2022-12-24T19:19:28;28.50;;;16.00;;
4450;SDS011;2238;50.180;9.230;2022-12-24T19:22:29;31.60;;;16.17;;
4450;SDS011;2238;50.180;9.230;2022-12-24T19:25:30;27.30;;;15.40;;
4450;SDS011;2238;50.180;9.230;2022-12-24T19:28:32;26.13;;;14.40;;
4450;SDS011;2238;50.180;9.230;2022-12-24T19:31:33;21.93;;;13.27;;
4450;SDS011;2238;50.180;9.230;2022-12-24T19:34:33;21.20;;;11.87;;
4450;SDS011;2238;50.180;9.230;2022-12-24T19:37:34;16.43;;;12.40;;
4450;SDS011;2238;50.180;9.230;2022-12-24T19:40:35;18.00;;;9.57;;
4450;SDS011;2238;50.180;9.230;2022-12-24T19:43:36;11.80;;;7.60;;
4450;SDS011;2238;50.180;9.230;2022-12-24T19:46:38;21.10;;;9.43;;
4450;SDS011;2238;50.180;9.230;2022-12-24T19:49:39;13.70;;;10.73;;
4450;SDS011;2238;50.180;9.230;2022-12-24T19:52:39;21.33;;;12.43;;
4450;SDS011;2238;50.180;9.230;2022-12-24T19:55:43;15.63;;;9.50;;
4450;SDS011;2238;50.180;9.230;2022-12-24T19:58:44;19.20;;;10.83;;
4450;SDS011;2238;50.180;9.230;2022-12-24T20:01:45;18.37;;;11.10;;
4450;SDS011;2238;50.180;9.230;2022-12-24T20:04:46;18.63;;;11.70;;
4450;SDS011;2238;50.180;9.230;2022-12-24T20:07:46;16.80;;;12.13;;
4450;SDS011;2238;50.180;9.230;2022-12-24T20:10:47;19.13;;;12.20;;
4450;SDS011;2238;50.180;9.230;2022-12-24T20:13:47;21.93;;;11.93;;